Aviation Digital Data Service (ADDS)

Output produced by METARs form (1104 UTC 13 December 2017)
found at http://www.aviationweather.gov/adds/metars/
 
EYKA 131050Z 24012KT 9999 SCT019 BKN074 03/M02 Q1011 R08/09//95
TAF EYKA 130500Z 1306/1406 23014G24KT 9000 BKN015 
     TEMPO 1306/1312 5000 SHRASN BKN007 BKN018CB 
     BECMG 1313/1314 19012KT SCT025
       
EYPA 131050Z 26011G23KT 200V310 9999 BKN016 05/02 Q1008 R19/2///95
TAF EYPA 130504Z 1306/1406 25014G26KT 9000 BKN020 
     TEMPO 1306/1312 5000 SHRA SCT007 BKN015CB 
     TEMPO 1318/1324 BKN010 
     BECMG 1400/1401 SCT030
       
EYSA 131050Z 21012KT 9999 -SN SCT006 BKN007 01/01 Q1008 R14L/29//95 R14R/29//95 YLO1 NOSIG
TAF EYSA 130800Z 1309/1318 23012G22KT 7000 SCT005 BKN010 
     TEMPO 1309/1313 1600 SHSN BKN005 BKN015CB
       
EYVI 131050Z 24014KT 9999 BKN018 02/M02 Q1011 R19/1///95 NOSIG
TAF EYVI 130502Z 1306/1406 24012G22KT 9000 BKN015 PBOB40 
     TEMPO 1306/1312 5000 SHRASN BKN007 BKN018CB 
     BECMG 1315/1316 18010KT SCT025 
     BECMG 1400/1401 BKN020 
     TEMPO 1401/1406 BKN010